createdAt,value
2018-10-19T00:00:58.214Z,6.36
2018-10-19T00:03:33.961Z,6.13
2018-10-19T00:06:09.868Z,6.23
2018-10-19T00:08:45.729Z,6.51
2018-10-19T00:11:21.749Z,6.70
2018-10-19T00:13:57.710Z,6.66
2018-10-19T00:16:33.523Z,6.45
2018-10-19T00:19:09.357Z,6.60
2018-10-19T00:21:45.342Z,6.64
2018-10-19T00:24:21.253Z,6.56
2018-10-19T00:26:57.280Z,6.58
2018-10-19T00:29:33.076Z,6.70
2018-10-19T00:32:09.036Z,6.74
2018-10-19T00:34:44.792Z,6.50
2018-10-19T00:37:20.559Z,6.78
2018-10-19T00:39:56.526Z,6.69
2018-10-19T00:42:32.442Z,6.48
2018-10-19T00:45:08.772Z,6.32
2018-10-19T00:47:44.919Z,6.37
2018-10-19T00:50:20.725Z,6.38
2018-10-19T00:52:56.561Z,6.09
2018-10-19T00:55:32.581Z,6.05
2018-10-19T00:58:08.528Z,6.13
2018-10-19T01:00:44.474Z,5.80
2018-10-19T01:03:20.404Z,5.71
2018-10-19T01:05:56.284Z,5.41
2018-10-19T01:08:32.236Z,5.39
2018-10-19T01:11:08.183Z,5.36
2018-10-19T01:13:44.109Z,5.84
2018-10-19T01:16:19.981Z,6.40
2018-10-19T01:18:55.988Z,6.49
2018-10-19T01:21:31.766Z,6.48
2018-10-19T01:24:07.615Z,6.27
2018-10-19T01:26:43.599Z,6.09
2018-10-19T01:29:19.541Z,5.88
2018-10-19T01:31:55.391Z,6.03
2018-10-19T01:34:31.205Z,5.86
2018-10-19T01:37:07.062Z,6.26
2018-10-19T01:39:42.947Z,6.08
2018-10-19T01:42:17.861Z,6.04
2018-10-19T01:44:52.708Z,6.26
2018-10-19T01:47:27.632Z,6.41
2018-10-19T01:50:02.521Z,5.90
2018-10-19T01:52:37.375Z,5.57
2018-10-19T01:55:12.275Z,5.74
2018-10-19T01:57:47.097Z,5.92
2018-10-19T02:00:22.052Z,5.80
2018-10-19T02:02:59.736Z,5.71
2018-10-19T02:05:34.577Z,5.59
2018-10-19T02:08:11.379Z,5.72
2018-10-19T02:10:46.287Z,5.45
2018-10-19T02:13:21.173Z,5.79
2018-10-19T02:15:56.100Z,5.60
2018-10-19T02:18:30.985Z,5.32
2018-10-19T02:21:06.267Z,5.17
2018-10-19T02:23:41.325Z,5.19
2018-10-19T02:26:16.324Z,5.40
2018-10-19T02:28:51.130Z,5.43
2018-10-19T02:31:26.265Z,5.56
2018-10-19T02:34:01.096Z,5.43
2018-10-19T02:36:36.067Z,4.95
2018-10-19T02:39:11.091Z,4.74
2018-10-19T02:41:46.027Z,5.08
2018-10-19T02:44:21.108Z,5.22
2018-10-19T02:46:55.923Z,5.18
2018-10-19T02:49:30.828Z,5.37
2018-10-19T02:52:06.104Z,5.12
2018-10-19T02:54:40.990Z,5.09
2018-10-19T02:57:15.802Z,5.25
2018-10-19T02:59:50.830Z,5.58
2018-10-19T03:02:25.700Z,5.72
2018-10-19T03:05:00.569Z,5.64
2018-10-19T03:07:35.765Z,5.50
2018-10-19T03:10:10.668Z,5.67
2018-10-19T03:12:45.446Z,5.16
2018-10-19T03:15:20.310Z,4.80
2018-10-19T03:17:55.181Z,4.53
2018-10-19T03:20:30.054Z,4.26
2018-10-19T03:23:05.179Z,4.32
2018-10-19T03:25:40.163Z,4.51
2018-10-19T03:28:14.941Z,4.77
2018-10-19T03:30:49.617Z,4.41
2018-10-19T03:33:24.986Z,4.21
2018-10-19T03:35:59.925Z,4.31
2018-10-19T03:38:34.728Z,4.47
2018-10-19T03:41:09.646Z,4.49
2018-10-19T03:43:44.779Z,4.29
2018-10-19T03:46:19.504Z,4.17
2018-10-19T03:48:54.547Z,4.20
2018-10-19T03:51:29.471Z,4.45
2018-10-19T03:54:04.381Z,4.52
2018-10-19T03:56:39.142Z,4.54
2018-10-19T03:59:14.013Z,4.84
2018-10-19T04:01:48.904Z,5.15
2018-10-19T04:04:23.668Z,5.38
2018-10-19T04:06:58.537Z,5.55
2018-10-19T04:09:33.414Z,5.33
2018-10-19T04:12:08.307Z,5.03
2018-10-19T04:14:43.052Z,4.68
2018-10-19T04:17:17.984Z,4.23
2018-10-19T04:19:53.115Z,4.13
2018-10-19T04:22:27.980Z,4.27
2018-10-19T04:25:02.721Z,4.23
2018-10-19T04:27:37.430Z,4.30
2018-10-19T04:30:12.462Z,4.41
2018-10-19T04:32:47.490Z,3.92
2018-10-19T04:35:22.474Z,3.89
2018-10-19T04:37:57.274Z,3.63
2018-10-19T04:40:31.992Z,4.21
2018-10-19T04:43:06.763Z,4.44
2018-10-19T04:45:42.128Z,4.48
2018-10-19T04:48:17.235Z,4.42
2018-10-19T04:50:52.120Z,4.80
2018-10-19T04:53:26.991Z,4.86
2018-10-19T04:56:01.956Z,5.20
2018-10-19T04:58:37.762Z,4.97
2018-10-19T05:01:12.583Z,4.80
2018-10-19T05:03:47.476Z,4.83
2018-10-19T05:06:22.380Z,4.96
2018-10-19T05:08:57.314Z,5.27
2018-10-19T05:11:32.156Z,5.71
2018-10-19T05:14:07.272Z,6.03
2018-10-19T05:16:42.524Z,6.24
2018-10-19T05:19:20.928Z,6.40
2018-10-19T05:21:55.744Z,6.40
2018-10-19T05:24:30.630Z,6.24
2018-10-19T05:27:05.537Z,5.96
2018-10-19T05:29:40.412Z,5.54
2018-10-19T05:32:15.292Z,5.26
2018-10-19T05:34:50.203Z,5.10
2018-10-19T05:37:25.172Z,4.96
2018-10-19T05:40:00.841Z,4.83
2018-10-19T05:42:35.659Z,5.25
2018-10-19T05:45:11.563Z,5.34
2018-10-19T05:47:46.524Z,5.53
2018-10-19T05:50:21.443Z,6.07
2018-10-19T05:52:56.430Z,6.43
2018-10-19T05:55:31.265Z,6.86
2018-10-19T05:58:06.055Z,6.75
2018-10-19T06:00:41.048Z,6.82
2018-10-19T06:03:15.876Z,7.21
2018-10-19T06:05:50.915Z,7.65
2018-10-19T06:08:25.942Z,7.69
2018-10-19T06:11:00.760Z,7.85
2018-10-19T06:13:35.718Z,7.50
2018-10-19T06:16:10.772Z,7.61
2018-10-19T06:18:45.554Z,7.69
2018-10-19T06:21:20.217Z,7.97
2018-10-19T06:23:55.185Z,7.85
2018-10-19T06:26:30.202Z,8.16
2018-10-19T06:29:05.763Z,8.07
2018-10-19T06:31:40.857Z,8.39
2018-10-19T06:34:16.175Z,8.68
2018-10-19T06:36:51.063Z,9.00
2018-10-19T06:39:26.173Z,9.37
2018-10-19T06:42:00.959Z,9.73
2018-10-19T06:44:35.797Z,9.80
2018-10-19T06:47:10.844Z,10.19
2018-10-19T06:49:45.805Z,10.33
2018-10-19T06:52:20.696Z,10.36
2018-10-19T06:54:50.608Z,10.68
2018-10-19T06:57:25.354Z,10.77
2018-10-19T06:59:55.058Z,10.82
2018-10-19T07:02:24.771Z,10.62
2018-10-19T07:04:54.494Z,10.69
2018-10-19T07:07:24.255Z,10.90
2018-10-19T07:09:54.025Z,11.22
2018-10-19T07:12:23.743Z,11.48
2018-10-19T07:14:53.705Z,11.75
2018-10-19T07:17:23.407Z,11.99
2018-10-19T07:19:55.576Z,12.17
2018-10-19T07:22:25.244Z,11.92
2018-10-19T07:24:54.924Z,11.61
2018-10-19T07:27:24.677Z,11.79
2018-10-19T07:29:54.430Z,12.13
2018-10-19T07:32:24.105Z,12.37
2018-10-19T07:34:53.901Z,12.68
2018-10-19T07:37:23.630Z,12.85
2018-10-19T07:39:53.379Z,13.00
2018-10-19T07:42:23.510Z,12.85
2018-10-19T07:44:56.271Z,13.27
2018-10-19T07:47:26.169Z,13.36
2018-10-19T07:49:56.400Z,13.38
2018-10-19T07:52:26.325Z,13.61
2018-10-19T07:54:56.428Z,13.68
2018-10-19T07:57:26.123Z,13.61
2018-10-19T07:59:55.916Z,13.73
2018-10-19T08:02:25.652Z,13.91
2018-10-19T08:04:55.338Z,14.31
2018-10-19T08:07:25.001Z,14.64
2018-10-19T08:09:54.732Z,14.85
2018-10-19T08:12:24.403Z,14.50
2018-10-19T08:14:54.158Z,14.64
2018-10-19T08:17:23.982Z,14.67
2018-10-19T08:19:53.694Z,14.43
2018-10-19T08:22:23.411Z,14.48
2018-10-19T08:24:53.948Z,14.61
2018-10-19T08:27:23.779Z,14.75
2018-10-19T08:29:53.639Z,14.94
2018-10-19T08:32:23.364Z,14.73
2018-10-19T08:34:53.057Z,14.82
2018-10-19T08:37:22.793Z,14.82
2018-10-19T08:39:52.948Z,14.89
2018-10-19T08:42:22.689Z,14.93
2018-10-19T08:44:52.401Z,15.11
2018-10-19T08:47:22.140Z,15.23
2018-10-19T08:49:56.872Z,15.26
2018-10-19T08:52:29.271Z,15.46
2018-10-19T08:54:59.319Z,15.69
2018-10-19T08:57:29.123Z,15.76
2018-10-19T08:59:59.061Z,15.92
2018-10-19T09:02:28.979Z,16.03
2018-10-19T09:04:58.688Z,16.22
2018-10-19T09:07:29.788Z,16.49
2018-10-19T09:09:59.547Z,16.94
2018-10-19T09:12:29.263Z,16.66
2018-10-19T09:15:00.385Z,17.00
2018-10-19T09:17:30.122Z,17.03
2018-10-19T09:20:00.382Z,17.27
2018-10-19T09:22:30.496Z,17.60
2018-10-19T09:25:00.535Z,17.70
2018-10-19T09:27:31.358Z,17.89
2018-10-19T09:30:01.389Z,17.87
2018-10-19T09:32:32.410Z,17.98
2018-10-19T09:35:02.508Z,17.77
2018-10-19T09:37:32.601Z,17.96
2018-10-19T09:40:02.290Z,18.23
2018-10-19T09:42:32.204Z,18.73
2018-10-19T09:45:01.984Z,19.12
2018-10-19T09:47:31.993Z,19.30
2018-10-19T09:50:01.927Z,19.56
2018-10-19T09:52:31.897Z,19.73
2018-10-19T09:55:01.828Z,19.99
2018-10-19T09:57:31.824Z,19.80
2018-10-19T10:00:01.563Z,20.06
2018-10-19T10:02:31.464Z,20.14
2018-10-19T10:05:01.286Z,20.17
2018-10-19T10:07:31.198Z,20.26
2018-10-19T10:10:00.892Z,20.53
2018-10-19T10:12:30.690Z,20.66
2018-10-19T10:15:00.443Z,20.71
2018-10-19T10:17:30.478Z,20.67
2018-10-19T10:20:00.297Z,20.74
2018-10-19T10:22:30.132Z,20.78
2018-10-19T10:25:00.008Z,20.94
2018-10-19T10:27:30.198Z,20.68
2018-10-19T10:29:59.877Z,20.87
2018-10-19T10:32:29.642Z,20.79
2018-10-19T10:34:59.552Z,21.01
2018-10-19T10:37:29.232Z,21.10
2018-10-19T10:39:58.916Z,21.10
2018-10-19T10:42:29.280Z,21.07
2018-10-19T10:44:59.045Z,21.27
2018-10-19T10:47:28.711Z,21.34
2018-10-19T10:49:58.433Z,21.42
2018-10-19T10:52:28.120Z,21.64
2018-10-19T10:54:57.847Z,21.18
2018-10-19T10:57:33.213Z,21.43
2018-10-19T11:00:02.960Z,21.50
2018-10-19T11:02:34.239Z,21.48
2018-10-19T11:05:04.142Z,21.29
2018-10-19T11:07:34.108Z,21.57
2018-10-19T11:10:03.834Z,21.95
2018-10-19T11:12:33.740Z,22.13
2018-10-19T11:15:04.092Z,22.05
2018-10-19T11:17:33.923Z,22.08
2018-10-19T11:20:03.965Z,22.03
2018-10-19T11:22:33.653Z,22.15
2018-10-19T11:25:03.441Z,21.77
2018-10-19T11:27:36.735Z,21.66
2018-10-19T11:30:10.003Z,21.73
2018-10-19T11:32:39.764Z,22.04
2018-10-19T11:35:09.721Z,22.00
2018-10-19T11:37:39.545Z,22.11
2018-10-19T11:40:31.473Z,22.12
2018-10-19T11:44:25.574Z,22.07
2018-10-19T11:54:02.113Z,22.02
2018-10-19T11:56:31.784Z,22.34
2018-10-19T11:59:01.575Z,22.39
2018-10-19T12:01:31.413Z,22.38
2018-10-19T12:04:06.400Z,22.30
2018-10-19T12:06:36.316Z,22.18
2018-10-19T12:09:07.511Z,22.46
2018-10-19T12:11:37.232Z,22.55
2018-10-19T12:14:06.917Z,22.47
2018-10-19T12:16:36.702Z,22.11
2018-10-19T12:19:06.788Z,22.13
2018-10-19T12:21:36.845Z,22.20
2018-10-19T12:24:06.498Z,22.17
2018-10-19T12:26:36.229Z,22.24
2018-10-19T12:29:05.918Z,22.35
2018-10-19T12:31:35.576Z,22.27
2018-10-19T12:34:05.484Z,22.32
2018-10-19T12:36:38.852Z,22.57
2018-10-19T12:39:09.575Z,22.47
2018-10-19T12:41:39.462Z,22.45
2018-10-19T12:44:11.772Z,22.51
2018-10-19T12:46:50.275Z,22.54
2018-10-19T12:49:21.375Z,22.17
2018-10-19T12:51:51.087Z,21.94
2018-10-19T12:54:20.786Z,21.86
2018-10-19T12:56:51.054Z,21.81
2018-10-19T12:59:21.066Z,21.62
2018-10-19T13:01:50.779Z,21.49
2018-10-19T13:04:20.547Z,21.20
2018-10-19T13:06:50.520Z,21.20
2018-10-19T13:09:20.311Z,21.36
2018-10-19T13:11:50.361Z,21.49
2018-10-19T13:14:20.089Z,21.40
2018-10-19T13:16:49.791Z,21.64
2018-10-19T13:19:19.592Z,21.30
2018-10-19T13:21:49.287Z,21.62
2018-10-19T13:24:19.026Z,22.48
2018-10-19T13:26:48.815Z,23.09
2018-10-19T13:29:19.838Z,23.74
2018-10-19T13:31:50.770Z,24.34
2018-10-19T13:34:21.734Z,24.84
2018-10-19T13:36:53.577Z,24.29
2018-10-19T13:39:24.431Z,23.56
2018-10-19T13:41:55.382Z,23.97
2018-10-19T13:44:26.980Z,23.98
2018-10-19T13:46:57.914Z,23.84
2018-10-19T13:49:29.007Z,23.67
2018-10-19T13:52:00.078Z,23.37
2018-10-19T13:54:30.961Z,23.35
2018-10-19T13:57:01.847Z,22.62
2018-10-19T13:59:33.033Z,22.36
2018-10-19T14:02:03.976Z,22.32
2018-10-19T14:04:34.848Z,22.45
2018-10-19T14:07:06.224Z,22.35
2018-10-19T14:09:37.024Z,21.85
2018-10-19T14:12:07.964Z,21.98
2018-10-19T14:14:38.799Z,21.58
2018-10-19T14:17:13.134Z,21.10
2018-10-19T14:19:44.229Z,20.90
2018-10-19T14:22:15.164Z,20.75
2018-10-19T14:24:46.112Z,20.51
2018-10-19T14:27:17.092Z,20.35
2018-10-19T14:29:48.071Z,20.22
2018-10-19T14:32:18.974Z,20.20
2018-10-19T14:34:49.811Z,20.04
2018-10-19T14:37:20.778Z,20.03
2018-10-19T14:39:51.612Z,20.06
2018-10-19T14:42:22.501Z,19.96
2018-10-19T14:44:53.339Z,19.90
2018-10-19T14:47:24.233Z,19.82
2018-10-19T14:49:55.122Z,19.74
2018-10-19T14:52:26.771Z,19.70
2018-10-19T14:54:57.671Z,19.51
2018-10-19T14:57:28.565Z,19.48
2018-10-19T14:59:59.548Z,19.57
2018-10-19T15:02:30.453Z,19.45
2018-10-19T15:05:01.345Z,19.38
2018-10-19T15:07:32.590Z,19.28
2018-10-19T15:10:03.540Z,19.25
2018-10-19T15:12:34.817Z,19.13
2018-10-19T15:15:05.847Z,18.95
2018-10-19T15:17:36.781Z,19.06
2018-10-19T15:20:07.707Z,19.05
2018-10-19T15:22:38.687Z,19.02
2018-10-19T15:25:10.371Z,18.87
2018-10-19T15:27:43.295Z,18.84
2018-10-19T15:30:15.849Z,18.76
2018-10-19T15:32:47.477Z,18.55
2018-10-19T15:35:18.342Z,18.43
2018-10-19T15:37:49.238Z,18.27
2018-10-19T15:40:20.193Z,18.20
2018-10-19T15:42:54.066Z,18.09
2018-10-19T15:45:24.930Z,18.06
2018-10-19T15:47:55.869Z,17.87
2018-10-19T15:50:32.748Z,17.62
2018-10-19T15:53:04.257Z,17.55
2018-10-19T15:55:35.147Z,17.21
2018-10-19T15:58:06.298Z,17.23
2018-10-19T16:00:37.252Z,16.95
2018-10-19T16:03:08.395Z,16.83
2018-10-19T16:05:39.528Z,16.93
2018-10-19T16:08:10.908Z,16.88
2018-10-19T16:10:41.792Z,17.02
2018-10-19T16:13:12.794Z,17.08
2018-10-19T16:15:43.654Z,16.99
2018-10-19T16:18:15.034Z,16.78
2018-10-19T16:20:46.109Z,16.68
2018-10-19T16:23:17.066Z,16.72
2018-10-19T16:25:49.050Z,16.72
2018-10-19T16:28:19.992Z,16.65
2018-10-19T16:30:51.057Z,16.79
2018-10-19T16:33:21.981Z,16.50
2018-10-19T16:35:52.953Z,16.71
2018-10-19T16:38:24.792Z,16.66
2018-10-19T16:40:55.754Z,16.59
2018-10-19T16:43:26.667Z,16.45
2018-10-19T16:45:57.542Z,16.18
2018-10-19T16:48:28.497Z,16.05
2018-10-19T16:50:59.389Z,16.17
2018-10-19T16:53:30.582Z,16.07
2018-10-19T16:56:01.445Z,15.99
2018-10-19T16:58:32.379Z,15.98
2018-10-19T17:01:03.341Z,15.78
2018-10-19T17:03:34.268Z,15.89
2018-10-19T17:06:05.765Z,15.97
2018-10-19T17:08:36.948Z,15.85
2018-10-19T17:11:07.814Z,15.69
2018-10-19T17:13:38.829Z,15.48
2018-10-19T17:16:09.853Z,15.27
2018-10-19T17:18:41.466Z,15.14
2018-10-19T17:21:12.403Z,15.16
2018-10-19T17:23:43.634Z,15.27
2018-10-19T17:26:14.716Z,15.08
2018-10-19T17:28:45.652Z,14.93
2018-10-19T17:31:16.636Z,14.77
2018-10-19T17:33:49.932Z,14.58
2018-10-19T17:36:20.872Z,14.68
2018-10-19T17:38:51.820Z,14.63
2018-10-19T17:41:22.692Z,14.61
2018-10-19T17:43:53.608Z,14.59
2018-10-19T17:46:27.579Z,14.69
2018-10-19T17:48:58.496Z,14.71
2018-10-19T17:51:29.568Z,14.97
2018-10-19T17:54:00.617Z,15.00
2018-10-19T17:56:31.821Z,14.98
2018-10-19T17:59:02.782Z,15.05
2018-10-19T18:01:36.608Z,15.03
2018-10-19T18:04:07.579Z,15.11
2018-10-19T18:06:38.809Z,15.02
2018-10-19T18:09:11.593Z,14.96
2018-10-19T18:11:43.725Z,14.92
2018-10-19T18:14:15.001Z,14.83
2018-10-19T18:16:45.915Z,14.74
2018-10-19T18:19:16.912Z,14.73
2018-10-19T18:21:47.901Z,14.72
2018-10-19T18:24:19.044Z,14.65
2018-10-19T18:26:50.659Z,14.72
2018-10-19T18:29:21.928Z,14.73
2018-10-19T18:31:53.313Z,14.70
2018-10-19T18:34:24.466Z,14.59
2018-10-19T18:36:55.452Z,14.62
2018-10-19T18:39:26.530Z,14.46
2018-10-19T18:41:57.525Z,14.50
2018-10-19T18:44:28.636Z,14.52
2018-10-19T18:46:59.608Z,14.52
2018-10-19T18:49:30.976Z,14.35
2018-10-19T18:52:01.859Z,14.14
2018-10-19T18:54:32.803Z,14.12
2018-10-19T18:57:03.667Z,13.94
2018-10-19T18:59:34.864Z,13.76
2018-10-19T19:02:06.651Z,13.95
2018-10-19T19:04:38.256Z,14.09
2018-10-19T19:07:10.070Z,14.05
2018-10-19T19:09:41.224Z,14.00
2018-10-19T19:12:12.283Z,13.97
2018-10-19T19:14:43.369Z,13.92
2018-10-19T19:17:14.777Z,13.88
2018-10-19T19:19:49.907Z,13.64
2018-10-19T19:22:20.781Z,13.79
2018-10-19T19:24:57.394Z,13.75
2018-10-19T19:27:28.236Z,13.65
2018-10-19T19:30:00.474Z,13.48
2018-10-19T19:32:31.353Z,13.50
2018-10-19T19:35:02.497Z,13.60
2018-10-19T19:37:34.257Z,13.56
2018-10-19T19:40:05.458Z,13.62
2018-10-19T19:42:42.662Z,13.69
2018-10-19T19:45:14.106Z,13.67
2018-10-19T19:47:50.519Z,13.32
2018-10-19T19:50:22.843Z,13.03
2018-10-19T19:52:54.267Z,12.88
2018-10-19T19:55:25.666Z,12.76
2018-10-19T19:57:56.857Z,12.75
2018-10-19T20:00:33.318Z,12.55
2018-10-19T20:03:09.511Z,12.63
2018-10-19T20:05:45.977Z,12.39
2018-10-19T20:08:22.129Z,12.49
2018-10-19T20:10:58.650Z,12.22
2018-10-19T20:13:34.673Z,12.15
2018-10-19T20:16:11.401Z,12.10
2018-10-19T20:18:48.199Z,12.07
2018-10-19T20:21:24.196Z,12.32
2018-10-19T20:24:00.144Z,12.40
2018-10-19T20:26:37.872Z,12.43
2018-10-19T20:29:16.037Z,12.15
2018-10-19T20:31:52.609Z,12.06
2018-10-19T20:34:29.787Z,11.74
2018-10-19T20:44:08.156Z,11.47
2018-10-19T20:46:44.140Z,11.69
2018-10-19T20:49:21.998Z,11.81
2018-10-19T20:51:57.888Z,11.84
2018-10-19T20:54:33.727Z,11.70
2018-10-19T20:57:10.006Z,11.84
2018-10-19T20:59:46.122Z,11.65
2018-10-19T21:02:22.219Z,11.28
2018-10-19T21:04:58.575Z,11.16
2018-10-19T21:07:35.371Z,10.99
2018-10-19T21:10:12.929Z,10.84
2018-10-19T21:12:49.301Z,10.64
2018-10-19T21:15:25.308Z,10.54
2018-10-19T21:18:01.267Z,10.61
2018-10-19T21:20:37.133Z,10.59
2018-10-19T21:23:13.168Z,10.77
2018-10-19T21:25:49.489Z,10.80
2018-10-19T21:28:26.137Z,10.99
2018-10-19T21:31:02.213Z,11.00
2018-10-19T21:33:38.147Z,11.09
2018-10-19T21:36:17.796Z,11.07
2018-10-19T21:38:54.328Z,11.05
2018-10-19T21:41:30.422Z,11.08
2018-10-19T21:44:06.508Z,11.09
2018-10-19T21:46:45.099Z,11.07
2018-10-19T21:49:21.857Z,10.92
2018-10-19T21:51:57.972Z,10.97
2018-10-19T21:54:34.095Z,10.92
2018-10-19T21:57:10.188Z,10.82
2018-10-19T21:59:46.300Z,10.48
2018-10-19T22:02:22.344Z,10.06
2018-10-19T22:04:58.431Z,9.98
2018-10-19T22:07:34.808Z,9.79
2018-10-19T22:10:14.234Z,9.55
2018-10-19T22:12:50.253Z,9.50
2018-10-19T22:15:26.238Z,9.52
2018-10-19T22:18:02.501Z,9.57
2018-10-19T22:20:38.443Z,9.67
2018-10-19T22:23:14.606Z,9.53
2018-10-19T22:25:50.792Z,9.48
2018-10-19T22:28:25.758Z,9.67
2018-10-19T22:31:01.863Z,9.66
2018-10-19T22:33:38.008Z,9.46
2018-10-19T22:36:13.938Z,9.56
2018-10-19T22:38:49.863Z,9.58
2018-10-19T22:41:25.794Z,9.54
2018-10-19T22:44:01.805Z,9.44
2018-10-19T22:46:37.836Z,8.97
2018-10-19T22:49:13.919Z,8.75
2018-10-19T22:51:50.108Z,8.51
2018-10-19T22:54:26.196Z,8.87
2018-10-19T22:57:02.231Z,8.92
2018-10-19T22:59:38.289Z,8.61
2018-10-19T23:02:14.366Z,8.75
2018-10-19T23:04:50.425Z,8.88
2018-10-19T23:07:26.582Z,8.98
2018-10-19T23:10:02.615Z,9.04
2018-10-19T23:12:38.516Z,8.72
2018-10-19T23:15:14.523Z,8.52
2018-10-19T23:17:50.474Z,8.41
2018-10-19T23:20:26.829Z,8.26
2018-10-19T23:23:02.753Z,8.42
2018-10-19T23:25:38.936Z,8.26
2018-10-19T23:28:14.865Z,8.54
2018-10-19T23:30:50.823Z,8.60
2018-10-19T23:33:26.721Z,8.66
2018-10-19T23:36:02.721Z,8.82
2018-10-19T23:38:38.753Z,8.99
2018-10-19T23:41:14.820Z,9.11
2018-10-19T23:43:51.091Z,9.10
2018-10-19T23:46:27.409Z,8.79
2018-10-19T23:49:03.432Z,8.22
2018-10-19T23:51:39.524Z,8.19
2018-10-19T23:54:15.488Z,8.06
2018-10-19T23:56:51.595Z,8.18
2018-10-19T23:59:27.495Z,7.98
